Aérodrome :
LOGIN :

S'inscrire | Disclaimer

   EN    FR    IT 

 










Légende :    VFR   VFR Marginal   IFR   IFR Intensif   IFR Très Intensif
Visi : 
Plafond : 
>= 8 km
>= 3000ft
5 à 8 km
1000 à 3000 ft
1500m à 5 km
500 à 1000 ft
800 à 1500m
200 à 500 ft
< 800m
< 200 ft
Symboles :   Orages  Brouillard  Fortes neiges  Fortes précipitations  Vent > 20 kt
SIGMETs :   Divers  Orages  Givrage  Turbulence  Onde Orograph.  Cendres Volcan.







- Altitude de l'aérodrome : 699 ft
- Code IATA : PAD


EDLP - Paderborn Lippstadt

DERNIER METAR :
  • 101920Z 26009G20KT 220V300 9999 -RA SCT012 BKN017 OVC025 03/01 Q1018

METARs EXPIRÉS :
  • 101850Z 26010KT 230V310 9999 -RA BKN016 OVC023 03/01 Q1018
  • 101820Z 26010KT 230V300 9999 BKN016 BKN020 OVC032 03/01 Q1018
  • 101750Z 26009KT 210V320 9999 BKN021 03/01 Q1018
  • 101720Z 26010KT 230V290 9999 FEW019 SCT029 BKN036 03/01 Q1018
  • 101650Z 25010KT 9999 FEW023 BKN032 03/01 Q1018

TAF TAF EDLP
Valide du 10 à 18h jusqu'au 11 à 18h UTC


101700Z 1018/1118 27010KT 9999 SCT030
PROB30
TEMPO 1018/1115 4500 -SHRASN BKN013TCU
TEMPO 1100/1112 BKN007
BECMG 1114/1117 28005KT
Pas de NOTAMs connus pour ce terrain.
1 SIGMET publié pour la FIR Langen (EDGG) :
 
Turbulence forte
EDGG SIGMET 2 VALID 101704/102000 EDZF
EDGG LANGEN FIR SEV TURB FCST APRX 40NM WID LINE BTN N5103 E00555 - N4755 E00906 FL180/240 MOV E NC=



MET'MAP, la Météo Aéronautique d'un coup d'oeil ! - Copyright ORBIFLY Décembre 2007 - Disclaimer

ORBIFLY MET'MAP TEAM :

Programmation & Développement : Alexandra Zaïnal
Conception & Développement : Baudouin d'Aumeries
Co-Programmation & Développement : Marc-Olivier Méhu
Soutien technique & logistique : Manuel Goepfert

Contact : metmap@orbifly.com




SOURCES & CREDITS :

   NOAA